x

Neah Bay, - 6nm North Of Cape Flattery, Wa (traffic Separation Lighted Buoy) (46087) Wave Buoy

2:20 - Mon 26th Jun 2017 All times are PDT. -7 hours from GMT.

  • Sig Wave height 7.5ft
  • Peak Period 8s
  • Wind
    7mph, 9mph gusts
  • Sea Temp 53°f
  • Ar Temp 54°f
  • Sea Pressure 1016.1mb
  • Neah Bay, - 6nm North Of Cape Flattery, Wa     (traffic Separation Lighted Buoy)
  • Neah Bay, - 6nm North Of Cape Flattery, Wa     (traffic Separation Lighted Buoy)

More Historic Weather Station data

Upgrade to MSW Pro to gain access to the past 30 days of data for over 8000 Wavebouys and Weather Stations around the globe.

Join Pro

Comparision Forecast

View Surf forecast
   
Seg 06/26 2:20 7.5ft 8s  -  7 9 mph 1016.1mb 53f 54f
1:50 8ft 8s 7s 7 9 mph 1015.9mb 53f 53f
1:20 9ft 8s 7s 7 11 mph 1015.9mb 53f 53f
12:50 8ft 8s 7s 9 11 mph 1015.8mb 53f 54f
12:20 7ft 9s 7s 7 9 mph 1015.8mb 53f 53f
11:50 7.5ft 8s 7s 9 11 mph 1015.4mb 53f 53f
11:20 7.5ft 9s 7s 9 11 mph 1015.4mb 52f 53f
10:50 7ft 8s 7s 9 11 mph 1015.2mb 52f 53f
10:20 8ft 9s 8s 7 9 mph 1015.2mb 52f 53f
9:50 8ft 8s 8s 4 7 mph 1015.1mb 52f 53f
9:20 7.5ft 8s 8s 4 7 mph 1015mb 52f 53f
8:50 7ft 9s 7s 4 7 mph 1014.8mb 52f 53f
8:20 7ft 9s 8s 4 7 mph 1014.7mb 52f 53f
7:50 7ft 10s 8s 2 4 mph 1014.5mb 52f 53f
7:20 7ft 9s 7s 4 7 mph 1014.4mb 53f 53f
6:20 7ft 7s 7s 7 9 mph 1014.2mb 53f 54f
5:50 7ft 8s 7s 9 11 mph 1014.4mb 53f 54f
5:20 7ft 8s 7s 9 13 mph 1014.3mb 53f 54f
4:50 7ft 8s 7s 9 11 mph 1014.5mb 53f 54f
4:20 6.5ft 8s 7s 9 11 mph 1014.5mb 53f 54f
3:50 6.5ft 8s 7s 7 9 mph 1014.4mb 53f 54f
3:20 7ft 10s 7s 9 11 mph 1014.2mb 53f 54f
2:50 6ft 8s 6s 9 11 mph 1014.4mb 53f 54f
2:20 6.5ft 8s 6s 13 16 mph 1014.3mb 53f 54f
1:50 6ft 8s 6s 13 16 mph 1014mb 53f 53f
1:20 6.5ft 8s 6s 11 13 mph 1013.4mb 52f 53f
12:50 6.5ft 7s 6s 13 18 mph 1013.1mb 52f 54f
12:20 7ft 8s 7s 13 16 mph 1012.5mb 53f 54f
Dom 06/25 11:50 7ft 8s 7s 13 16 mph 1011.7mb 53f 55f
11:20 7ft 8s 6s 13 16 mph 1011.2mb 54f 55f
10:50 7.5ft 8s 7s 7 13 mph 1011.8mb 54f 56f
10:20 6.5ft 8s 6s 9 13 mph 1012.3mb 54f 56f
9:50 7ft 7s 6s 9 13 mph 1012.6mb 55f 56f
9:20 6ft 8s 6s 11 13 mph 1012.4mb 55f 56f
8:50 6ft 7s 6s 9 13 mph 1011.9mb 55f 57f
8:20 5.5ft 8s 6s 7 11 mph 1012mb 55f 57f
7:50 5ft 7s 5s 18 22 mph 1011.9mb 55f 57f
7:20 5ft 8s 6s 7 9 mph 1012.1mb 55f 56f
6:50 5ft 7s 6s 11 16 mph 1012mb 55f 56f
6:20 4.5ft 7s 5s 11 16 mph 1012.2mb 55f 56f
5:50 4ft 6s 5s 11 16 mph 1012.3mb 55f 57f
5:20 4ft 6s 5s 9 11 mph 1012.2mb 55f 56f
4:50 3.5ft 6s 5s 11 13 mph 1012.6mb 56f 56f
4:20 3.5ft 6s 5s 16 18 mph 1012.4mb 56f 56f
3:50 3.5ft 15s 5s 13 16 mph 1012.6mb 56f 57f
3:20 3.5ft 6s 5s 16 18 mph 1012.5mb 56f 57f
2:50 3.5ft 15s 5s 16 18 mph 1012.6mb 56f 58f
2:20 3.5ft 6s 5s 13 16 mph 1012.7mb 56f 58f
1:50 3.5ft 5s 5s 11 13 mph 1012.9mb 56f 58f
1:20 3.5ft 6s 5s 4 7 mph 1012.9mb 55f 58f
12:50 3ft 6s 6s 4 7 mph 1012.9mb 55f 64f
12:20 3.5ft 15s 6s 7 9 mph 1012.9mb 55f 60f
11:50 3.5ft 15s 6s 7 9 mph 1013.1mb 55f 60f
11:20 3ft 6s 6s 9 9 mph 1013mb 54f 59f
10:50 2.5ft 15s 6s 7 9 mph 1013.1mb 54f 58f
10:20 2.5ft 15s 7s 9 11 mph 1013.1mb 54f 58f
9:50 2ft 16s 7s 9 11 mph 1013.2mb 54f 56f
9:20 2ft 16s 7s 13 13 mph 1013.1mb 53f 56f
8:50 1.6ft 16s 7s 13 13 mph 1013.1mb 53f 56f
8:20 1.6ft 16s 7s 13 13 mph 1013.3mb 53f 56f
7:50 1.6ft 16s 7s 13 13 mph 1013.4mb 54f 55f
7:20 1.6ft 16s 7s 11 11 mph 1013.4mb 54f 57f
6:50 1.6ft 16s 7s 13 16 mph 1013.4mb 54f 58f
6:20 1.6ft 16s 7s 9 11 mph 1013.5mb 54f 57f
5:50 1.6ft 16s 6s 11 13 mph 1013.4mb 54f 58f
5:20 1.6ft 16s 7s 11 11 mph 1013.4mb 55f 58f
4:50 1.6ft 16s 5s 16 20 mph 1013.4mb 55f 60f
4:20 2ft 16s 6s 16 16 mph 1013.3mb 55f 60f
3:50 2ft 16s 6s 13 16 mph 1013.4mb 55f 59f
3:20 1.6ft 16s 6s 13 16 mph 1013.5mb 55f 60f
2:50 2ft 16s 6s 7 9 mph 1013.8mb 55f 59f
2:20 2ft 16s 6s 7 7 mph 1014mb 55f 59f
1:50 2ft 16s 6s 7 9 mph 1014.1mb 55f 58f
1:20 2ft 16s 6s 9 11 mph 1014.2mb 54f 60f
12:50 2ft 16s 5s 11 13 mph 1014.3mb 54f 61f
12:20 2ft 15s 5s 11 11 mph 1014.5mb 54f 60f
Sáb 06/24 11:50 2.5ft 16s 6s 4 7 mph 1014.7mb 55f 62f
11:20 2.5ft 7s 6s 4 4 mph 1015mb 55f 60f
10:50 2.5ft 16s 6s 2 2 mph 1015.3mb 56f 60f
10:20 2.5ft 16s 6s 2 4 mph 1015.5mb 56f 61f
9:50 2.5ft 7s 6s 4 4 mph 1015.6mb 56f 61f
9:20 2ft 16s 6s 4 7 mph 1015.7mb 56f 60f
8:50 2ft 7s 6s 7 7 mph 1015.8mb 56f 61f
8:20 2.5ft 16s 7s 7 9 mph 1016mb 57f 61f
7:50 2ft 16s 6s 7 9 mph 1016.3mb 57f 61f
7:20 2ft 16s 6s 7 9 mph 1016.5mb 57f 66f
6:50 2.5ft 16s 6s 4 4 mph 1016.6mb 57f 66f
6:20 2ft 8s 6s 7 9 mph 1016.6mb 57f 64f
5:50 2.5ft 16s 6s 9 11 mph 1016.9mb 57f 65f
5:20 2.5ft 17s 6s 11 13 mph 1017.2mb 56f 64f
4:50 2.5ft 16s 6s 11 16 mph 1017.6mb 56f 65f
4:20 2.5ft 7s 6s 13 16 mph 1017.7mb 56f 64f
3:50 2.5ft 16s 6s 13 13 mph 1018.1mb 56f 62f
2:50 2.5ft 16s 6s 7 9 mph 1018.8mb 56f 61f
2:20 3ft 6s 5s 9 11 mph 1018.8mb 56f 61f
1:50 3ft 6s 6s 11 13 mph 1018.8mb 56f 60f
1:20 3ft 7s 5s 11 13 mph 1019.3mb 56f 59f
12:50 3.5ft 16s 6s 9 11 mph 1019.6mb 55f 59f
12:20 3.5ft 7s 6s 11 13 mph 1019.8mb 55f 59f
11:50 3.5ft 7s 6s 11 13 mph 1019.9mb 55f 58f
11:20 3.5ft 16s 7s 13 16 mph 1020mb 55f 59f
10:50 3ft 6s 7s 16 18 mph 1020.1mb 55f 60f
10:20 3ft 16s 7s 13 16 mph 1020.2mb 55f 60f
9:50 2.5ft 16s 7s 16 16 mph 1020.3mb 55f 60f
9:20 3ft 7s 7s 11 13 mph 1020.5mb 55f 58f
8:50 2.5ft 7s 7s 11 13 mph 1020.7mb 55f 57f
8:20 3ft 6s 7s 11 13 mph 1020.7mb 54f 57f
7:50 2.5ft 8s 7s 13 16 mph 1020.5mb 55f 58f
7:20 2.5ft 8s 7s 13 13 mph 1020.6mb 54f 58f
6:50 3ft 8s 7s 11 13 mph 1020.3mb 54f 57f
6:20 3ft 8s 7s 9 11 mph 1020.3mb 54f 56f
5:50 2.5ft 7s 6s 9 9 mph 1020.1mb 53f 56f
5:20 3ft 7s 6s 11 16 mph 1019.9mb 53f 56f
4:50 3.5ft 7s 7s 11 13 mph 1019.9mb 54f 56f
4:20 3.5ft 8s 7s 16 18 mph 1019.8mb 54f 57f
3:50 3ft 8s 6s 18 20 mph 1019.9mb 54f 57f
3:20 3.5ft 8s 6s 11 11 mph 1020mb 54f 56f
2:50 3.5ft 7s 6s 9 11 mph 1020mb 54f 57f
2:20 3ft 8s 6s 16 18 mph 1019.9mb 53f 59f
1:50 3.5ft 8s 6s 13 16 mph 1020mb 54f 58f
1:20 3.5ft 8s 6s 16 20 mph 1020.1mb 55f 60f
12:50 3.5ft 7s 6s 11 13 mph 1020.3mb 55f 60f
12:20 3.5ft 7s 6s 11 13 mph 1020.2mb 55f 59f
Sex 06/23 11:50 3.5ft 7s 6s 7 11 mph 1020.4mb 55f 60f
11:20 3.5ft 7s 6s 4 7 mph 1020.6mb 55f 57f
10:50 3.5ft 7s 6s 2 4 mph 1020.8mb 55f 59f
10:20 3.5ft 8s 6s 2 4 mph 1020.8mb 56f 58f
9:50 3.5ft 7s 6s 2 4 mph 1020.8mb 56f 59f
9:20 3.5ft 8s 6s 4 7 mph 1020.7mb 56f 60f
8:50 3.5ft 8s 6s 4 7 mph 1020.8mb 56f 62f
8:20 3.5ft 8s 6s 7 7 mph 1020.9mb 57f 61f
7:50 3.5ft 8s 6s 7 7 mph 1021.1mb 56f 61f
7:20 3.5ft 8s 6s 4 7 mph 1021.3mb 56f 60f
6:50 3.5ft 7s 6s 2 2 mph 1021.4mb 57f 60f
6:20 3.5ft 7s 6s  -  0 mph 1021.7mb 57f 60f
5:50 3.5ft 7s 6s 4 4 mph 1022.2mb 57f 59f
5:20 3.5ft 6s 6s 7 9 mph 1022.3mb 56f 58f
4:50 3.5ft 7s 6s 9 9 mph 1022.5mb 56f 58f
4:20 3.5ft 7s 6s 9 9 mph 1022.8mb 56f 58f
3:50 3.5ft 8s 6s 7 7 mph 1022.9mb 56f 59f
3:20 4.5ft 7s 6s 2 4 mph 1022.9mb 55f 59f
2:50 4.5ft 7s 6s 4 7 mph 1022.7mb 55f 58f
2:20 4ft 8s 6s 4 7 mph 1023mb 55f 58f
1:50 4.5ft 7s 6s 7 7 mph 1023mb 55f 57f
1:20 4.5ft 8s 6s 7 9 mph 1023.1mb 55f 57f
12:50 5ft 7s 6s 9 11 mph 1023.2mb 55f 56f
12:20 5ft 7s 6s 9 11 mph 1023.1mb 54f 56f
11:50 5ft 6s 6s 7 9 mph 1023.4mb 54f 55f
11:20 4.5ft 6s 6s 7 9 mph 1023.3mb 54f 55f
10:50 5ft 7s 7s 9 9 mph 1023.4mb 54f 55f
10:20 5.5ft 8s 7s 9 11 mph 1023.5mb 54f 55f
9:50 5ft 8s 7s 9 11 mph 1023.7mb 54f 54f
9:20 5ft 7s 7s 9 11 mph 1023.9mb 54f 54f
8:50 4.5ft 7s 7s 11 13 mph 1023.9mb 54f 54f
8:20 5ft 8s 7s 7 9 mph 1024mb 54f 54f
7:50 5ft 7s 7s 7 9 mph 1024mb 54f 54f
7:20 5ft 8s 7s 7 9 mph 1023.8mb 54f 54f
6:20 5ft 8s 7s 9 11 mph 1023.4mb 54f 54f
5:50 5ft 8s 7s 9 11 mph 1023.3mb 54f 53f
5:20 5ft 7s 7s 7 7 mph 1023.6mb 55f 54f
4:50 5ft 8s 7s 9 11 mph 1023.4mb 55f 54f
4:20 4.5ft 7s 6s 7 9 mph 1023.4mb 55f 54f
3:50 5ft 8s 6s 7 9 mph 1023.3mb 55f 55f
3:20 5ft 7s 6s 7 9 mph 1023.3mb 55f 56f
2:50 6ft 7s 6s 2 4 mph 1023.3mb 55f 55f
2:20 5.5ft 8s 6s 2 4 mph 1023.1mb 55f 55f
1:50 6ft 8s 6s 4 7 mph 1023.4mb 55f 55f
1:20 5.5ft 9s 6s 7 7 mph 1023.4mb 56f 55f
12:50 5.5ft 9s 6s 9 11 mph 1023.4mb 56f 55f
12:20 5ft 8s 6s 4 7 mph 1023.4mb 56f 55f
Qui 06/22 11:50 5ft 9s 7s 4 4 mph 1023.8mb 56f 55f
11:20 4.5ft 8s 6s 4 7 mph 1024mb 56f 55f
10:50 4.5ft 9s 7s 4 7 mph 1024mb 57f 55f
10:20 5ft 9s 6s 4 7 mph 1024.2mb 57f 56f